Portada
METAR-TAF:

METAR-TAF

Aeroports :

Singapur, Singapur

latitud: 01-22N, longitud: 103-55E, altitud: 18 m

Observació

L'informe es va fer fa 20 minuts, a les 17:00 UTC
Vent 4 kt del Est/Sud-Est
Temperatura 28°C
Humitat 79%
Pressió 1011 hPa
Visibilitat 10 km o més
Escasses núvols a una alçada de 1800 ft
Cel ennuvolat a una alçada de 30000 ft

METAR: WSAP 211700Z 12004KT 9999 FEW018 BKN300 28/24 Q1011

Hora: 01:20 (17:20 UTC)

Pronòstic

L'informe es va fer fa 6 hores i 20 minuts, a les 11:00 UTC
Pronòstic vàlid del 21 a les 12 UTC al 22 a les 18 UTC
Vent 10 kt del Sud-Est
Visibilitat: 6000 m
Escasses núvols a una alçada de 1500 ft
Núvols disperses a una alçada de 2000 ft
calitja
Temporalment
l' 21 a les 20 UTC al 22 a les 01 UTC
Visibilitat: 4500 m

TAF: WSAP 211100Z 2112/2218 14010KT 6000 HZ FEW015 SCT020 TEMPO 2120/2201 4500

Observacions i pronòstics meteorològics de més de 4000 aeroports (METAR i TAF).

Les estacions disponibles són els punts grocs i vermells al mapa.

Posi el ratolí al punt desitjat per veure el nom de l'estació.

Feu clic per veure les observacions i els pronòstics meteorològics.

Per canviar el mapa: feu clic els botons verds amb una creu de color negre per apropar; al botó verd amb un guió per allunyar la imatge; o en les fletxes verdes per a mapes adjacents.


METAR-TAF: